createdAt,value
2022-08-25T00:01:09.893Z,0
2022-08-25T00:04:10.104Z,0
2022-08-25T00:07:10.392Z,0
2022-08-25T00:10:10.578Z,0
2022-08-25T00:13:05.799Z,0
2022-08-25T00:16:11.325Z,0
2022-08-25T00:19:06.285Z,0
2022-08-25T00:22:06.508Z,0
2022-08-25T00:25:06.777Z,0
2022-08-25T00:28:08.617Z,0
2022-08-25T00:31:07.282Z,0
2022-08-25T00:34:07.451Z,0
2022-08-25T00:37:07.698Z,0
2022-08-25T00:40:07.979Z,0
2022-08-25T00:43:08.190Z,0
2022-08-25T00:46:08.477Z,0
2022-08-25T00:49:08.645Z,0
2022-08-25T00:52:08.904Z,0
2022-08-25T00:55:09.128Z,0
2022-08-25T00:58:09.363Z,0
2022-08-25T01:01:09.672Z,0
2022-08-25T01:04:09.827Z,0
2022-08-25T01:07:17.958Z,0
2022-08-25T01:10:10.307Z,0
2022-08-25T01:13:16.414Z,0
2022-08-25T01:16:10.843Z,0
2022-08-25T01:19:11.022Z,0
2022-08-25T01:22:06.224Z,0
2022-08-25T01:25:06.505Z,0
2022-08-25T01:28:06.829Z,0
2022-08-25T01:31:23.856Z,0
2022-08-25T01:34:07.171Z,0
2022-08-25T01:37:07.405Z,0
2022-08-25T01:40:07.639Z,0
2022-08-25T01:43:07.873Z,0
2022-08-25T01:46:08.141Z,0
2022-08-25T01:49:08.366Z,0
2022-08-25T01:52:08.697Z,0
2022-08-25T01:55:08.836Z,0
2022-08-25T01:58:09.064Z,0
2022-08-25T02:01:09.352Z,0
2022-08-25T02:04:09.523Z,0
2022-08-25T02:07:09.769Z,0
2022-08-25T02:10:09.987Z,0
2022-08-25T02:13:10.276Z,0
2022-08-25T02:16:10.469Z,0
2022-08-25T02:19:05.714Z,0
2022-08-25T02:22:10.952Z,0
2022-08-25T02:25:06.207Z,0
2022-08-25T02:28:06.578Z,0
2022-08-25T02:31:06.716Z,0
2022-08-25T02:34:06.874Z,0
2022-08-25T02:37:07.160Z,0
2022-08-25T02:40:07.380Z,0
2022-08-25T02:43:07.587Z,0
2022-08-25T02:46:07.884Z,0
2022-08-25T02:49:08.060Z,0
2022-08-25T02:52:08.281Z,0
2022-08-25T02:55:08.548Z,0
2022-08-25T02:58:08.771Z,0
2022-08-25T03:01:09.088Z,0
2022-08-25T03:04:09.291Z,0
2022-08-25T03:07:09.482Z,0
2022-08-25T03:10:09.702Z,0
2022-08-25T03:13:09.954Z,0
2022-08-25T03:16:11.391Z,0
2022-08-25T03:19:10.459Z,0
2022-08-25T03:22:10.652Z,0
2022-08-25T03:25:05.873Z,0
2022-08-25T03:28:11.113Z,0
2022-08-25T03:31:11.391Z,0
2022-08-25T03:34:06.589Z,0
2022-08-25T03:37:06.828Z,0
2022-08-25T03:40:07.133Z,0
2022-08-25T03:43:07.302Z,0
2022-08-25T03:46:07.581Z,0
2022-08-25T03:49:07.802Z,0
2022-08-25T03:52:07.985Z,0
2022-08-25T03:55:08.236Z,0
2022-08-25T03:58:08.470Z,0
2022-08-25T04:01:08.742Z,0
2022-08-25T04:04:08.932Z,0
2022-08-25T04:07:09.218Z,0
2022-08-25T04:10:09.423Z,0
2022-08-25T04:13:09.665Z,0
2022-08-25T04:16:09.933Z,0
2022-08-25T04:19:10.152Z,0
2022-08-25T04:22:10.352Z,0.1
2022-08-25T04:25:10.597Z,0.2
2022-08-25T04:28:05.973Z,0.3
2022-08-25T04:31:11.072Z,0.5
2022-08-25T04:34:14.339Z,0.7
2022-08-25T04:37:06.531Z,0.9
2022-08-25T04:40:06.792Z,1.3
2022-08-25T04:43:06.983Z,1.6
2022-08-25T04:46:07.355Z,1.8
2022-08-25T04:49:07.478Z,2.1
2022-08-25T04:52:12.965Z,2.4
2022-08-25T04:55:07.918Z,2.7
2022-08-25T04:58:08.150Z,3
2022-08-25T05:01:08.636Z,3.3
2022-08-25T05:04:08.673Z,3.6
2022-08-25T05:07:08.887Z,4
2022-08-25T05:10:09.132Z,4.3
2022-08-25T05:13:09.452Z,4.5
2022-08-25T05:16:09.869Z,4.8
2022-08-25T05:19:09.841Z,5.1
2022-08-25T05:22:10.057Z,5.5
2022-08-25T05:25:10.327Z,5.9
2022-08-25T05:28:10.528Z,6.1
2022-08-25T05:31:10.829Z,6.5
2022-08-25T05:34:10.979Z,6.7
2022-08-25T05:37:09.274Z,7
2022-08-25T05:40:06.534Z,7.2
2022-08-25T05:43:06.700Z,7.4
2022-08-25T05:46:07.017Z,7.6
2022-08-25T05:49:07.185Z,7.7
2022-08-25T05:52:07.405Z,8
2022-08-25T05:55:07.675Z,8.3
2022-08-25T05:58:07.876Z,8.8
2022-08-25T06:01:09.148Z,9.2
2022-08-25T06:04:08.341Z,10
2022-08-25T06:07:08.600Z,10.4
2022-08-25T06:10:08.817Z,10.8
2022-08-25T06:13:09.057Z,11.6
2022-08-25T06:16:09.343Z,12
2022-08-25T06:19:09.526Z,10.7
2022-08-25T06:22:09.796Z,10.2
2022-08-25T06:25:10.009Z,9.8
2022-08-25T06:28:10.238Z,9.1
2022-08-25T06:31:10.552Z,10.1
2022-08-25T06:33:42.671Z,8.5
2022-08-25T06:37:08.150Z,9.3
2022-08-25T06:40:08.410Z,10.3
2022-08-25T06:43:08.618Z,12.9
2022-08-25T06:46:08.835Z,14.7
2022-08-25T06:49:09.092Z,16.4
2022-08-25T06:52:09.292Z,17.3
2022-08-25T06:55:09.588Z,16.9
2022-08-25T06:58:11.128Z,19.2
2022-08-25T07:01:14.897Z,18.8
2022-08-25T07:04:12.916Z,18.4
2022-08-25T07:07:10.505Z,18.1
2022-08-25T07:10:10.719Z,17.7
2022-08-25T07:13:05.972Z,17.1
2022-08-25T07:16:06.239Z,18.3
2022-08-25T07:19:11.439Z,19.2
2022-08-25T07:22:06.658Z,20.1
2022-08-25T07:25:06.916Z,21.3
2022-08-25T07:28:07.145Z,21.9
2022-08-25T07:31:07.476Z,22.3
2022-08-25T07:34:07.599Z,22.7
2022-08-25T07:37:07.869Z,23.2
2022-08-25T07:40:08.221Z,22.7
2022-08-25T07:43:08.402Z,22
2022-08-25T07:46:08.622Z,21.2
2022-08-25T07:49:16.879Z,20.2
2022-08-25T07:52:09.211Z,20
2022-08-25T07:55:11.062Z,20.1
2022-08-25T07:58:09.489Z,20.6
2022-08-25T08:01:09.737Z,21.1
2022-08-25T08:04:10.022Z,21.2
2022-08-25T08:07:12.198Z,21.6
2022-08-25T08:13:10.840Z,22.3
2022-08-25T08:16:05.926Z,23.1
2022-08-25T08:19:06.154Z,23.6
2022-08-25T08:22:06.385Z,23.8
2022-08-25T08:25:10.583Z,23.8
2022-08-25T08:28:07.059Z,24.2
2022-08-25T08:31:12.188Z,24.1
2022-08-25T08:34:07.317Z,93
2022-08-25T08:37:07.593Z,159.5
2022-08-25T08:40:07.871Z,223.8
2022-08-25T08:43:18.159Z,287.9
2022-08-25T08:46:08.376Z,351.3
2022-08-25T08:49:08.530Z,414.4
2022-08-25T08:52:08.744Z,477.8
2022-08-25T08:55:08.983Z,541.3
2022-08-25T08:58:09.202Z,540.3
2022-08-25T09:01:19.554Z,541.6
2022-08-25T09:04:09.675Z,544.4
2022-08-25T09:07:10.059Z,549
2022-08-25T09:10:10.137Z,552.9
2022-08-25T09:13:12.788Z,557.3
2022-08-25T09:16:10.666Z,561.6
2022-08-25T09:19:05.844Z,499.8
2022-08-25T09:22:33.405Z,433.9
2022-08-25T09:25:08.690Z,367.9
2022-08-25T09:28:06.757Z,303.7
2022-08-25T09:31:06.836Z,235.8
2022-08-25T09:34:07.026Z,183.1
2022-08-25T09:37:07.290Z,131
2022-08-25T09:40:07.554Z,79.8
2022-08-25T09:43:12.425Z,96
2022-08-25T09:46:08.002Z,112.6
2022-08-25T09:49:08.197Z,130.5
2022-08-25T09:52:08.438Z,148.4
2022-08-25T09:55:08.686Z,170.5
2022-08-25T09:58:09.552Z,180
2022-08-25T10:01:09.196Z,191.2
2022-08-25T10:04:19.032Z,202.6
2022-08-25T10:07:09.624Z,214.2
2022-08-25T10:10:10.035Z,216.9
2022-08-25T10:13:10.129Z,223.9
2022-08-25T10:16:20.495Z,231.3
2022-08-25T10:19:10.601Z,238.3
2022-08-25T10:22:11.198Z,246.2
2022-08-25T10:25:11.566Z,254.1
2022-08-25T10:28:06.474Z,261.3
2022-08-25T10:31:11.556Z,270.7
2022-08-25T10:34:06.718Z,272.6
2022-08-25T10:37:09.234Z,251.9
2022-08-25T10:40:07.195Z,227.9
2022-08-25T10:43:08.111Z,202.4
2022-08-25T10:46:07.723Z,202.6
2022-08-25T10:49:07.885Z,174.6
2022-08-25T10:52:08.114Z,143.8
2022-08-25T10:55:08.362Z,150.5
2022-08-25T10:58:08.577Z,171.3
2022-08-25T11:01:08.849Z,208.8
2022-08-25T11:04:09.087Z,243.7
2022-08-25T11:07:09.302Z,280.1
2022-08-25T11:10:09.533Z,286.3
2022-08-25T11:13:11.368Z,311.7
2022-08-25T11:16:18.950Z,310
2022-08-25T11:19:10.265Z,294.9
2022-08-25T11:22:10.455Z,280.5
2022-08-25T11:25:10.699Z,268
2022-08-25T11:28:06.102Z,258.6
2022-08-25T11:31:11.257Z,222.2
2022-08-25T11:34:06.393Z,192.3
2022-08-25T11:37:06.623Z,166.6
2022-08-25T11:40:06.907Z,171.9
2022-08-25T11:43:08.093Z,165.2
2022-08-25T11:46:07.362Z,137.6
2022-08-25T11:49:07.561Z,110.7
2022-08-25T11:52:07.825Z,82.9
2022-08-25T11:55:08.058Z,93
2022-08-25T11:58:08.674Z,88.2
2022-08-25T12:01:08.511Z,90.6
2022-08-25T12:04:08.781Z,90.1
2022-08-25T12:07:08.973Z,74.4
2022-08-25T12:10:09.212Z,78.7
2022-08-25T12:13:10.605Z,79.7
2022-08-25T12:16:09.684Z,82.6
2022-08-25T12:19:09.939Z,73
2022-08-25T12:22:10.152Z,73.4
2022-08-25T12:25:10.394Z,66.7
2022-08-25T12:28:09.103Z,60.7
2022-08-25T12:31:05.974Z,59.4
2022-08-25T12:34:12.544Z,60.9
2022-08-25T12:37:06.659Z,64.3
2022-08-25T12:40:06.703Z,69
2022-08-25T12:43:07.154Z,64.2
2022-08-25T12:46:07.061Z,60
2022-08-25T12:49:07.300Z,68.7
2022-08-25T12:52:07.498Z,77.3
2022-08-25T12:55:07.736Z,72.3
2022-08-25T12:58:07.950Z,71.7
2022-08-25T13:01:09.270Z,70
2022-08-25T13:04:09.185Z,66.2
2022-08-25T13:07:08.675Z,70.8
2022-08-25T13:10:08.905Z,75.3
2022-08-25T13:13:09.146Z,69.4
2022-08-25T13:16:09.446Z,62.6
2022-08-25T13:19:09.621Z,64.1
2022-08-25T13:22:13.856Z,60.3
2022-08-25T13:25:10.094Z,56.1
2022-08-25T13:28:11.226Z,52.1
2022-08-25T13:31:10.582Z,48.9
2022-08-25T13:34:10.790Z,46.3
2022-08-25T13:37:11.038Z,43.8
2022-08-25T13:40:06.279Z,42.5
2022-08-25T13:43:11.490Z,42.1
2022-08-25T13:46:06.774Z,41.6
2022-08-25T13:49:06.954Z,42.8
2022-08-25T13:52:07.184Z,41.3
2022-08-25T13:55:07.414Z,39.3
2022-08-25T13:58:07.861Z,37.1
2022-08-25T14:01:22.245Z,34.4
2022-08-25T14:07:08.488Z,35.2
2022-08-25T14:10:08.601Z,35.1
2022-08-25T14:13:08.870Z,34.1
2022-08-25T14:16:09.099Z,36.4
2022-08-25T14:19:09.324Z,38.7
2022-08-25T14:22:09.544Z,38.9
2022-08-25T14:25:09.791Z,39.1
2022-08-25T14:28:10.850Z,35.4
2022-08-25T14:31:10.262Z,32.3
2022-08-25T14:34:10.483Z,29.3
2022-08-25T14:37:10.756Z,27.5
2022-08-25T14:40:05.974Z,25.4
2022-08-25T14:43:06.454Z,23.7
2022-08-25T14:46:06.455Z,23.8
2022-08-25T14:49:06.657Z,23.7
2022-08-25T14:52:06.884Z,23.7
2022-08-25T14:55:07.115Z,23.7
2022-08-25T14:58:07.353Z,23.5
2022-08-25T15:01:12.616Z,22.4
2022-08-25T15:04:07.849Z,21.6
2022-08-25T15:07:08.051Z,20.6
2022-08-25T15:10:08.276Z,20.1
2022-08-25T15:13:08.546Z,20.6
2022-08-25T15:16:08.840Z,22
2022-08-25T15:19:09.054Z,23.8
2022-08-25T15:22:09.242Z,25.1
2022-08-25T15:25:09.485Z,25.5
2022-08-25T15:28:10.117Z,26
2022-08-25T15:31:09.989Z,26.9
2022-08-25T15:34:11.639Z,25.7
2022-08-25T15:37:10.425Z,24
2022-08-25T15:40:07.075Z,22.2
2022-08-25T15:43:05.912Z,20.2
2022-08-25T15:46:11.131Z,18.7
2022-08-25T15:49:11.371Z,17.8
2022-08-25T15:52:06.629Z,16.5
2022-08-25T15:55:06.819Z,14.9
2022-08-25T15:58:07.047Z,15.1
2022-08-25T16:01:09.392Z,14.9
2022-08-25T16:04:07.515Z,14.7
2022-08-25T16:07:07.768Z,14.6
2022-08-25T16:10:07.980Z,13.9
2022-08-25T16:13:08.782Z,13
2022-08-25T16:16:08.506Z,12.5
2022-08-25T16:19:08.746Z,12.2
2022-08-25T16:22:11.119Z,12
2022-08-25T16:25:09.193Z,12.2
2022-08-25T16:28:09.415Z,12.2
2022-08-25T16:31:09.746Z,11.6
2022-08-25T16:34:09.887Z,10.9
2022-08-25T16:37:10.123Z,10.5
2022-08-25T16:40:10.411Z,10.2
2022-08-25T16:43:10.666Z,9.8
2022-08-25T16:46:10.865Z,9.4
2022-08-25T16:49:11.085Z,9
2022-08-25T16:52:06.304Z,8.8
2022-08-25T16:55:06.566Z,8.6
2022-08-25T16:58:07.021Z,8.6
2022-08-25T17:01:07.031Z,8.5
2022-08-25T17:04:07.243Z,8.6
2022-08-25T17:07:07.813Z,8.9
2022-08-25T17:10:07.714Z,9
2022-08-25T17:13:07.964Z,9.2
2022-08-25T17:16:08.233Z,9.1
2022-08-25T17:19:08.434Z,9
2022-08-25T17:22:08.648Z,8.9
2022-08-25T17:25:08.931Z,8.8
2022-08-25T17:28:09.117Z,8.4
2022-08-25T17:31:09.439Z,8
2022-08-25T17:34:09.584Z,7.6
2022-08-25T17:37:09.834Z,7.2
2022-08-25T17:40:10.140Z,6.8
2022-08-25T17:43:10.347Z,6.4
2022-08-25T17:46:10.582Z,6
2022-08-25T17:49:05.807Z,5.6
2022-08-25T17:52:06.021Z,5.2
2022-08-25T17:55:11.990Z,4.8
2022-08-25T17:58:11.465Z,4.5
2022-08-25T18:01:06.703Z,4.1
2022-08-25T18:04:06.929Z,3.7
2022-08-25T18:07:07.172Z,3.3
2022-08-25T18:10:07.398Z,2.9
2022-08-25T18:13:07.728Z,2.6
2022-08-25T18:16:07.868Z,2.2
2022-08-25T18:19:09.762Z,1.9
2022-08-25T18:22:08.338Z,1.6
2022-08-25T18:25:08.615Z,1.3
2022-08-25T18:28:08.852Z,0.9
2022-08-25T18:31:09.089Z,0.7
2022-08-25T18:34:09.291Z,0.5
2022-08-25T18:37:09.543Z,0.3
2022-08-25T18:40:09.851Z,0.2
2022-08-25T18:43:10.003Z,0.1
2022-08-25T18:46:10.255Z,0
2022-08-25T18:49:10.507Z,0
2022-08-25T18:52:10.685Z,0
2022-08-25T18:55:10.948Z,0
2022-08-25T18:58:06.313Z,0
2022-08-25T19:01:11.593Z,0
2022-08-25T19:04:06.649Z,0
2022-08-25T19:07:11.891Z,0
2022-08-25T19:10:07.117Z,0.8
2022-08-25T19:13:08.354Z,0.8
2022-08-25T19:16:07.707Z,0.8
2022-08-25T19:19:07.838Z,0.8
2022-08-25T19:22:16.650Z,0.8
2022-08-25T19:25:08.314Z,0.8
2022-08-25T19:28:09.014Z,0.8
2022-08-25T19:31:08.862Z,0.8
2022-08-25T19:34:09.030Z,0
2022-08-25T19:37:09.238Z,0
2022-08-25T19:40:09.558Z,0
2022-08-25T19:43:09.739Z,0
2022-08-25T19:46:10.021Z,0
2022-08-25T19:49:10.188Z,0
2022-08-25T19:52:10.829Z,0
2022-08-25T19:55:10.652Z,0
2022-08-25T19:58:10.911Z,0
2022-08-25T20:01:06.181Z,0
2022-08-25T20:04:11.360Z,0
2022-08-25T20:07:12.330Z,0
2022-08-25T20:10:06.830Z,0
2022-08-25T20:13:07.307Z,0
2022-08-25T20:16:07.358Z,0
2022-08-25T20:19:07.523Z,0
2022-08-25T20:22:07.763Z,0
2022-08-25T20:25:13.192Z,0
2022-08-25T20:28:13.224Z,0
2022-08-25T20:31:08.553Z,0
2022-08-25T20:34:08.712Z,0
2022-08-25T20:37:08.956Z,0
2022-08-25T20:40:09.331Z,0
2022-08-25T20:43:10.376Z,0
2022-08-25T20:46:09.770Z,0
2022-08-25T20:49:09.881Z,0
2022-08-25T20:52:10.133Z,0
2022-08-25T20:55:10.376Z,0
2022-08-25T20:58:10.591Z,0
2022-08-25T21:01:10.907Z,0
2022-08-25T21:04:06.061Z,0
2022-08-25T21:07:06.303Z,0
2022-08-25T21:10:06.531Z,0
2022-08-25T21:13:06.782Z,0
2022-08-25T21:16:06.995Z,0
2022-08-25T21:19:09.028Z,0
2022-08-25T21:22:07.453Z,0
2022-08-25T21:25:07.696Z,0
2022-08-25T21:28:07.914Z,0
2022-08-25T21:31:08.284Z,0
2022-08-25T21:34:08.392Z,0
2022-08-25T21:37:08.637Z,0
2022-08-25T21:40:08.980Z,0
2022-08-25T21:43:09.293Z,0
2022-08-25T21:46:09.375Z,0
2022-08-25T21:49:14.685Z,0
2022-08-25T21:52:09.824Z,0
2022-08-25T21:55:15.720Z,0
2022-08-25T21:58:10.302Z,0
2022-08-25T22:01:11.042Z,0
2022-08-25T22:04:10.786Z,0
2022-08-25T22:07:05.995Z,0
2022-08-25T22:10:16.478Z,0
2022-08-25T22:13:06.623Z,0
2022-08-25T22:16:06.679Z,0
2022-08-25T22:19:06.994Z,0
2022-08-25T22:22:07.150Z,0
2022-08-25T22:25:07.412Z,0
2022-08-25T22:28:07.620Z,0
2022-08-25T22:31:08.121Z,0
2022-08-25T22:34:08.102Z,0
2022-08-25T22:37:08.353Z,0
2022-08-25T22:40:08.596Z,0
2022-08-25T22:43:10.820Z,0
2022-08-25T22:46:09.116Z,0
2022-08-25T22:49:09.300Z,0
2022-08-25T22:52:12.824Z,0
2022-08-25T22:55:11.190Z,0
2022-08-25T22:58:10.013Z,0
2022-08-25T23:01:10.227Z,0
2022-08-25T23:04:10.737Z,0
2022-08-25T23:07:10.732Z,0
2022-08-25T23:10:10.928Z,0
2022-08-25T23:13:11.169Z,0
2022-08-25T23:16:06.397Z,0
2022-08-25T23:19:06.619Z,0
2022-08-25T23:22:06.863Z,0
2022-08-25T23:25:07.100Z,0
2022-08-25T23:28:07.313Z,0
2022-08-25T23:31:07.579Z,0
2022-08-25T23:34:07.807Z,0
2022-08-25T23:37:08.035Z,0
2022-08-25T23:40:08.282Z,0
2022-08-25T23:43:08.736Z,0
2022-08-25T23:46:08.802Z,0
2022-08-25T23:49:09.383Z,0
2022-08-25T23:52:09.221Z,0
2022-08-25T23:55:09.460Z,0
2022-08-25T23:58:10.690Z,0
